createdAt,value
2018-08-06T00:00:05.296Z,31.7
2018-08-06T00:15:04.336Z,31.7
2018-08-06T00:30:04.748Z,31.4
2018-08-06T00:45:05.105Z,31.4
2018-08-06T01:00:04.766Z,31.1
2018-08-06T01:15:04.969Z,31.1
2018-08-06T01:30:04.814Z,30.6
2018-08-06T01:45:04.909Z,30.6
2018-08-06T02:00:04.550Z,30.5
2018-08-06T02:15:05.087Z,30.2
2018-08-06T02:30:04.264Z,30.2
2018-08-06T02:45:05.429Z,30
2018-08-06T03:00:04.476Z,29.8
2018-08-06T03:15:05.485Z,29.7
2018-08-06T03:30:05.268Z,29.5
2018-08-06T03:45:05.373Z,29.4
2018-08-06T04:00:04.531Z,29.2
2018-08-06T04:15:04.638Z,29.1
2018-08-06T04:30:04.532Z,29
2018-08-06T04:45:05.193Z,28.9
2018-08-06T05:00:04.664Z,28.9
2018-08-06T05:15:05.304Z,28.9
2018-08-06T05:30:05.015Z,28.9
2018-08-06T05:45:04.943Z,28.9
2018-08-06T06:00:04.859Z,29.1
2018-08-06T06:15:04.213Z,29.3
2018-08-06T06:30:04.966Z,29.4
2018-08-06T06:45:04.815Z,29.6
2018-08-06T07:00:04.317Z,29.6
2018-08-06T07:15:04.774Z,29.9
2018-08-06T07:30:04.903Z,30.2
2018-08-06T07:45:04.491Z,30.5
2018-08-06T08:00:05.177Z,31
2018-08-06T08:15:04.617Z,32.5
2018-08-06T08:30:04.777Z,34
2018-08-06T08:45:04.748Z,35.2
2018-08-06T09:00:04.697Z,36
2018-08-06T09:15:04.698Z,36.7
2018-08-06T09:30:04.826Z,37.1
2018-08-06T09:45:04.801Z,37.5
2018-08-06T10:00:04.212Z,35.4
2018-08-06T10:15:05.313Z,34.8
2018-08-06T10:30:05.097Z,34.1
2018-08-06T10:45:04.259Z,33.9
2018-08-06T11:00:05.215Z,33.9
2018-08-06T11:15:04.696Z,33.9
2018-08-06T11:30:04.977Z,33.9
2018-08-06T11:45:04.374Z,34.1
2018-08-06T12:00:05.014Z,34.1
2018-08-06T12:15:04.925Z,33.8
2018-08-06T12:30:04.932Z,33.9
2018-08-06T12:45:04.576Z,34
2018-08-06T13:00:05.063Z,34.1
2018-08-06T13:15:04.368Z,34.2
2018-08-06T13:30:04.823Z,34.2
2018-08-06T13:45:04.764Z,34.3
2018-08-06T14:00:04.313Z,34.4
2018-08-06T14:15:04.314Z,34.3
2018-08-06T14:30:04.830Z,34.2
2018-08-06T14:45:04.322Z,34.2
2018-08-06T15:00:04.269Z,34.2
2018-08-06T15:15:05.062Z,34.2
2018-08-06T15:30:04.790Z,34
2018-08-06T15:45:04.549Z,34.1
2018-08-06T16:00:05.298Z,34.1
2018-08-06T16:15:05.003Z,34
2018-08-06T16:30:05.410Z,33.7
2018-08-06T16:45:05.045Z,33.2
2018-08-06T17:00:05.275Z,33.1
2018-08-06T17:15:05.376Z,32.9
2018-08-06T17:30:04.866Z,33
2018-08-06T17:45:04.971Z,33.1
2018-08-06T18:00:04.430Z,32.9
2018-08-06T18:15:04.515Z,33
2018-08-06T18:30:04.626Z,32.9
2018-08-06T18:45:05.332Z,32.7
2018-08-06T19:00:04.517Z,32.6
2018-08-06T19:15:04.738Z,32.7
2018-08-06T19:30:04.807Z,32.6
2018-08-06T19:45:05.410Z,32.5
2018-08-06T20:00:04.924Z,32.4
2018-08-06T20:15:04.688Z,32.3
2018-08-06T20:30:04.484Z,32
2018-08-06T20:45:05.321Z,31.9
2018-08-06T21:00:04.681Z,31.8
2018-08-06T21:15:06.193Z,31.6
2018-08-06T21:30:05.173Z,31.5
2018-08-06T21:45:06.705Z,31.4
2018-08-06T22:00:04.428Z,31.3
2018-08-06T22:15:04.832Z,31.2
2018-08-06T22:30:05.481Z,30.9
2018-08-06T22:45:04.702Z,31
2018-08-06T23:00:05.570Z,30.9
2018-08-06T23:15:04.576Z,30.8
2018-08-06T23:30:05.278Z,30.6
2018-08-06T23:45:04.469Z,30.4
